Weather at Ashland Municipal Sumner Parker Field

Public forecast

Using degrees Fahrenheit for public forecast. Weather courtesy of forecast.io.

Closest aviation weather report (METAR) to Ashland Municipal Sumner Parker Field

Closest report is Rogue Valley International Medford Airport, 14.5 nm (26.9 km) NW. Retrieved 2021/06/19 02:53 UTC (42 minutes ago):

KMFR 190253Z 34009KT 10SM CLR 28/06 A2989 RMK AO2 SLP112 T02830056 53003

Closest aviation forecast (TAF) to Ashland Municipal Sumner Parker Field

Closest forecast is Rogue Valley International Medford Airport, 14.5 nm (26.9 km) NW. Retrieved 2021-06-19 00:42 UTC (3 hours ago):

TAF KMFR 182340Z 1900/1924 32010KT P6SM SKC FM190400 35004KT P6SM SKC